createdAt,value
2022-11-22T00:00:55.373Z,84.52
2022-11-22T00:03:24.718Z,84.82
2022-11-22T00:05:52.112Z,85.32
2022-11-22T00:08:19.889Z,85.17
2022-11-22T00:10:48.720Z,85.04
2022-11-22T00:13:16.549Z,84.43
2022-11-22T00:15:44.039Z,84.68
2022-11-22T00:18:12.006Z,84.49
2022-11-22T00:20:40.857Z,84.57
2022-11-22T00:23:08.697Z,85.15
2022-11-22T00:25:36.051Z,85.53
2022-11-22T00:28:03.969Z,85.90
2022-11-22T00:30:31.398Z,86.31
2022-11-22T00:32:59.285Z,86.96
2022-11-22T00:35:26.524Z,87.33
2022-11-22T00:37:55.748Z,87.14
2022-11-22T00:40:23.039Z,86.85
2022-11-22T00:42:50.816Z,87.30
2022-11-22T00:45:18.195Z,86.87
2022-11-22T00:47:45.967Z,87.36
2022-11-22T00:50:13.410Z,87.15
2022-11-22T00:52:41.251Z,87.21
2022-11-22T00:55:10.184Z,87.27
2022-11-22T00:57:37.947Z,87.74
2022-11-22T01:00:07.279Z,88.45
2022-11-22T01:02:35.192Z,88.50
2022-11-22T01:05:02.640Z,88.04
2022-11-22T01:07:30.485Z,89.43
2022-11-22T01:09:57.875Z,89.60
2022-11-22T01:12:27.197Z,89.54
2022-11-22T01:14:54.676Z,89.53
2022-11-22T01:17:22.567Z,90.25
2022-11-22T01:19:49.798Z,90.11
2022-11-22T01:22:17.623Z,89.94
2022-11-22T01:24:44.928Z,90.72
2022-11-22T01:27:12.676Z,90.64
2022-11-22T01:29:41.491Z,90.47
2022-11-22T01:32:09.633Z,90.35
2022-11-22T01:34:36.907Z,90.19
2022-11-22T01:37:04.778Z,90.83
2022-11-22T01:39:33.033Z,90.42
2022-11-22T01:42:01.119Z,90.65
2022-11-22T01:44:31.375Z,90.65
2022-11-22T01:47:05.133Z,92.14
2022-11-22T01:49:40.428Z,91.52
2022-11-22T01:52:13.235Z,90.93
2022-11-22T01:54:43.651Z,90.69
2022-11-22T01:57:16.312Z,90.49
2022-11-22T01:59:48.695Z,90.52
2022-11-22T02:02:18.495Z,91.30
2022-11-22T02:04:46.531Z,90.66
2022-11-22T02:07:21.149Z,91.11
2022-11-22T02:09:51.637Z,90.97
2022-11-22T02:12:23.467Z,91.85
2022-11-22T02:14:51.440Z,91.36
2022-11-22T02:17:20.578Z,90.81
2022-11-22T02:19:49.570Z,91.46
2022-11-22T02:22:28.839Z,92.01
2022-11-22T02:25:02.568Z,92.30
2022-11-22T02:27:32.029Z,92.52
2022-11-22T02:29:59.448Z,92.46
2022-11-22T02:32:27.129Z,92.71
2022-11-22T02:34:54.424Z,92.92
2022-11-22T02:37:25.290Z,93.23
2022-11-22T02:39:57.447Z,93.45
2022-11-22T02:42:26.178Z,94.01
2022-11-22T02:44:54.907Z,94.10
2022-11-22T05:33:13.211Z,94.52
2022-11-22T05:35:40.929Z,93.49
2022-11-22T05:38:08.231Z,93.96
2022-11-22T05:40:35.966Z,93.11
2022-11-22T05:43:03.239Z,92.75
2022-11-22T05:45:30.994Z,92.01
2022-11-22T05:47:58.205Z,93.21
2022-11-22T05:50:27.435Z,92.54
2022-11-22T05:52:54.838Z,92.39
2022-11-22T05:55:22.400Z,92.18
2022-11-22T05:57:49.647Z,92.13
2022-11-22T06:00:18.715Z,92.44
2022-11-22T06:02:45.891Z,92.71
2022-11-22T06:05:13.740Z,91.88
2022-11-22T06:07:42.525Z,91.46
2022-11-22T06:10:11.038Z,92.18
2022-11-22T06:12:38.327Z,93.28
2022-11-22T06:15:07.036Z,93.17
2022-11-22T06:17:34.468Z,91.87
2022-11-22T06:20:06.203Z,92.14
2022-11-22T06:22:34.093Z,92.71
2022-11-22T06:25:04.263Z,92.19
2022-11-22T06:27:31.600Z,91.89
2022-11-22T06:29:59.443Z,92.04
2022-11-22T06:32:26.698Z,92.69
2022-11-22T06:34:54.473Z,93.15
2022-11-22T06:37:21.765Z,92.97
2022-11-22T06:39:49.684Z,93.25
2022-11-22T06:42:18.399Z,93.32
2022-11-22T06:44:46.071Z,93.76
2022-11-22T06:47:13.541Z,93.06
2022-11-22T06:49:41.208Z,93.06
2022-11-22T06:52:08.549Z,93.56
2022-11-22T06:54:36.350Z,94.50
2022-11-22T06:57:03.881Z,94.52
2022-11-22T06:59:33.198Z,94.63
2022-11-22T07:02:06.111Z,94.79
2022-11-22T07:04:34.664Z,95.02
2022-11-22T07:07:01.997Z,94.51
2022-11-22T07:09:30.002Z,94.72
2022-11-22T07:11:57.466Z,94.38
2022-11-22T07:14:25.147Z,94.03
2022-11-22T07:16:53.851Z,94.32
2022-11-22T07:19:21.714Z,94.16
2022-11-22T07:21:48.971Z,94.08
2022-11-22T07:24:17.015Z,94.55
2022-11-22T07:26:44.354Z,94.81
2022-11-22T07:29:12.012Z,94.33
2022-11-22T07:31:39.283Z,94.33
2022-11-22T07:34:08.601Z,94.29
2022-11-22T07:36:35.937Z,93.64
2022-11-22T07:39:03.987Z,93.31
2022-11-22T07:41:31.300Z,93.30
2022-11-22T07:43:58.911Z,93.06
2022-11-22T07:46:27.623Z,92.95
2022-11-22T07:48:56.073Z,92.26
2022-11-22T07:51:24.897Z,92.55
2022-11-22T07:53:52.555Z,92.59
2022-11-22T07:56:19.950Z,92.17
2022-11-22T07:58:47.592Z,93.18
2022-11-22T08:01:17.122Z,93.01
2022-11-22T08:03:45.739Z,93.41
2022-11-22T08:06:14.045Z,93.37
2022-11-22T08:08:43.579Z,93.67
2022-11-22T08:11:11.629Z,93.64
2022-11-22T08:13:39.878Z,93.28
2022-11-22T08:16:09.653Z,93.91
2022-11-22T08:18:38.373Z,93.16
2022-11-22T08:21:07.063Z,93.16
2022-11-22T08:23:35.066Z,92.54
2022-11-22T08:26:04.980Z,93.55
2022-11-22T08:28:32.602Z,94.15
2022-11-22T08:31:01.691Z,93.79
2022-11-22T08:33:29.654Z,93.90
2022-11-22T08:35:58.688Z,94.50
2022-11-22T08:38:26.688Z,94.54
2022-11-22T08:40:54.265Z,94.09
2022-11-22T08:43:23.883Z,94.36
2022-11-22T08:45:55.025Z,94.59
2022-11-22T08:48:23.287Z,94.82
2022-11-22T08:50:51.682Z,93.82
2022-11-22T08:53:19.411Z,93.02
2022-11-22T08:55:46.963Z,93.02
2022-11-22T08:58:14.950Z,93.67
2022-11-22T09:00:44.342Z,94.09
2022-11-22T09:03:11.949Z,93.26
2022-11-22T09:08:29.005Z,92.91
2022-11-22T09:11:00.331Z,93.71
2022-11-22T09:13:28.293Z,93.84
2022-11-22T09:16:01.674Z,93.98
2022-11-22T09:18:29.300Z,93.80
2022-11-22T09:21:00.140Z,94.81
2022-11-22T09:23:28.031Z,94.53
2022-11-22T09:25:59.420Z,95.01
2022-11-22T09:28:27.862Z,94.77
2022-11-22T09:31:00.824Z,94.00
2022-11-22T09:33:29.584Z,93.51
2022-11-22T09:36:00.673Z,94.19
2022-11-22T09:38:28.965Z,94.39
2022-11-22T09:40:56.965Z,94.55
2022-11-22T09:43:39.808Z,94.08
2022-11-22T09:46:22.592Z,93.57
2022-11-22T09:49:31.446Z,93.79
2022-11-22T09:52:06.339Z,93.80
2022-11-22T09:54:41.507Z,94.23
2022-11-22T09:57:15.506Z,94.37
2022-11-22T09:59:47.606Z,93.75
2022-11-22T10:02:21.369Z,93.73
2022-11-22T10:04:56.411Z,93.46
2022-11-22T10:07:29.860Z,93.82
2022-11-22T10:10:03.496Z,93.25
2022-11-22T10:12:38.688Z,93.50
2022-11-22T10:15:16.870Z,93.45
2022-11-22T10:17:53.131Z,92.98
2022-11-22T10:20:22.428Z,93.48
2022-11-22T10:22:50.540Z,93.58
2022-11-22T10:25:20.469Z,92.96
2022-11-22T10:27:57.502Z,93.29
2022-11-22T10:30:35.004Z,93.26
2022-11-22T10:33:16.226Z,93.21
2022-11-22T10:36:01.641Z,93.30
2022-11-22T10:39:16.696Z,93.13
2022-11-22T10:41:59.383Z,93.19
2022-11-22T10:44:41.319Z,92.91
2022-11-22T10:47:17.124Z,93.72
2022-11-22T10:49:58.032Z,93.77
2022-11-22T10:52:34.102Z,93.56
2022-11-22T10:55:17.615Z,93.67
2022-11-22T10:57:54.416Z,93.31
2022-11-22T11:00:24.308Z,93.80
2022-11-22T11:03:05.087Z,94.05
2022-11-22T11:06:00.867Z,93.25
2022-11-22T11:09:02.859Z,93.06
2022-11-22T11:11:27.033Z,93.62
2022-11-22T11:13:58.626Z,93.26
2022-11-22T11:16:29.965Z,92.61
2022-11-22T11:19:04.789Z,93.29
2022-11-22T11:21:33.650Z,93.36
2022-11-22T11:24:02.104Z,93.15
2022-11-22T11:26:32.259Z,92.99
2022-11-22T11:29:34.548Z,93.02
2022-11-22T11:32:08.320Z,93.05
2022-11-22T11:34:36.509Z,93.11
2022-11-22T11:37:06.322Z,92.64
2022-11-22T11:39:36.852Z,92.83
2022-11-22T11:42:28.942Z,92.61
2022-11-22T11:45:26.298Z,92.62
2022-11-22T11:47:53.646Z,92.93
2022-11-22T11:50:24.582Z,92.41
2022-11-22T11:52:55.890Z,92.65
2022-11-22T11:55:24.060Z,91.96
2022-11-22T11:57:53.342Z,92.53
2022-11-22T12:00:25.578Z,91.57
2022-11-22T12:02:58.631Z,92.08
2022-11-22T12:05:29.361Z,92.18
2022-11-22T12:07:59.097Z,92.02
2022-11-22T12:10:31.500Z,92.50
2022-11-22T12:13:04.781Z,92.08
2022-11-22T12:15:43.968Z,92.41
2022-11-22T12:18:30.541Z,92.00
2022-11-22T12:21:07.931Z,91.62
2022-11-22T12:23:47.959Z,91.28
2022-11-22T12:26:18.981Z,91.52
2022-11-22T12:28:47.384Z,91.60
2022-11-22T12:31:27.238Z,91.34
2022-11-22T12:33:57.284Z,91.63
2022-11-22T12:36:32.741Z,91.84
2022-11-22T12:39:03.719Z,90.92
2022-11-22T12:41:33.755Z,90.49
2022-11-22T12:44:03.920Z,90.03
2022-11-22T12:46:39.564Z,90.84
2022-11-22T12:49:15.365Z,90.98
2022-11-22T12:51:48.986Z,90.90
2022-11-22T12:54:22.787Z,90.29
2022-11-22T12:56:55.398Z,90.39
2022-11-22T12:59:31.886Z,90.48
2022-11-22T13:02:12.437Z,89.90
2022-11-22T13:04:49.775Z,90.47
2022-11-22T13:07:27.354Z,90.34
2022-11-22T13:10:01.926Z,90.19
2022-11-22T13:12:34.544Z,90.25
2022-11-22T13:15:04.158Z,90.08
2022-11-22T13:17:36.103Z,89.93
2022-11-22T13:20:07.456Z,89.31
2022-11-22T13:22:46.314Z,89.17
2022-11-22T13:25:34.472Z,89.37
2022-11-22T13:28:09.653Z,88.94
2022-11-22T13:30:38.615Z,88.60
2022-11-22T13:33:22.767Z,88.53
2022-11-22T13:35:50.174Z,87.45
2022-11-22T13:38:18.322Z,88.40
2022-11-22T13:40:49.453Z,88.17
2022-11-22T13:43:50.506Z,86.51
2022-11-22T13:46:56.734Z,86.14
2022-11-22T13:49:38.230Z,85.38
2022-11-22T13:52:49.008Z,85.86
2022-11-22T13:55:37.259Z,85.29
2022-11-22T13:58:51.443Z,84.30
2022-11-22T14:01:58.132Z,83.34
2022-11-22T14:04:37.798Z,84.11
2022-11-22T14:07:20.639Z,84.94
2022-11-22T14:09:54.935Z,85.36
2022-11-22T14:12:35.115Z,85.09
2022-11-22T14:15:20.800Z,84.82
2022-11-22T14:18:09.535Z,85.21
2022-11-22T14:20:44.543Z,85.37
2022-11-22T14:23:22.833Z,85.79
2022-11-22T14:26:06.442Z,85.74
2022-11-22T14:29:01.162Z,85.08
2022-11-22T14:31:31.264Z,85.33
2022-11-22T14:34:21.798Z,85.58
2022-11-22T14:37:22.285Z,84.78
2022-11-22T14:40:16.453Z,83.50
2022-11-22T14:43:06.349Z,84.94
2022-11-22T14:45:43.491Z,84.86
2022-11-22T14:48:19.180Z,83.87
2022-11-22T14:50:59.745Z,83.26
2022-11-22T14:53:33.050Z,83.42
2022-11-22T14:56:15.625Z,83.65
2022-11-22T14:58:54.537Z,83.66
2022-11-22T15:01:44.873Z,84.85
2022-11-22T15:09:13.693Z,85.68
2022-11-22T15:09:18.784Z,85.36
2022-11-22T15:11:07.816Z,85.88
2022-11-22T15:13:54.557Z,85.57
2022-11-22T15:57:25.963Z,85.88
2022-11-22T15:59:56.560Z,85.14
2022-11-22T16:02:25.918Z,84.83
2022-11-22T16:06:04.619Z,83.75
2022-11-22T16:07:48.805Z,84.22
2022-11-22T16:10:20.505Z,83.91
2022-11-22T16:12:48.342Z,83.77
2022-11-22T16:15:26.818Z,83.87
2022-11-22T16:18:01.452Z,82.87
2022-11-22T16:20:32.306Z,83.10
2022-11-22T16:23:26.924Z,83.27
2022-11-22T16:26:00.731Z,83.72
2022-11-22T16:28:31.604Z,84.69
2022-11-22T16:31:03.479Z,85.03
2022-11-22T16:33:31.725Z,85.45
2022-11-22T16:36:01.395Z,85.52
2022-11-22T16:38:29.139Z,85.37
2022-11-22T16:40:58.710Z,85.61
2022-11-22T16:43:32.388Z,85.97
2022-11-22T16:46:02.289Z,86.25
2022-11-22T16:48:32.560Z,86.58
2022-11-22T16:51:06.365Z,86.42
2022-11-22T16:53:41.161Z,86.84
2022-11-22T16:56:17.197Z,86.79
2022-11-22T16:58:44.965Z,87.35
2022-11-22T17:01:16.937Z,87.80
2022-11-22T17:03:46.007Z,87.17
2022-11-22T17:06:15.084Z,87.53
2022-11-22T17:08:42.851Z,87.88
2022-11-22T17:11:11.611Z,87.94
2022-11-22T17:13:39.006Z,88.29
2022-11-22T17:16:09.314Z,87.86
2022-11-22T17:18:38.552Z,86.95
2022-11-22T17:21:14.071Z,87.17
2022-11-22T17:23:41.850Z,86.63
2022-11-22T17:26:10.010Z,86.72
2022-11-22T17:28:37.442Z,86.60
2022-11-22T17:31:12.028Z,87.03
2022-11-22T17:33:41.129Z,86.19
2022-11-22T17:36:18.485Z,84.76
2022-11-22T17:38:45.828Z,84.80
2022-11-22T17:41:13.822Z,84.74
2022-11-22T17:43:41.362Z,84.61
2022-11-22T17:46:09.934Z,84.76
2022-11-22T17:48:37.388Z,85.17
2022-11-22T17:51:07.970Z,85.41
2022-11-22T17:53:36.167Z,85.27
2022-11-22T17:56:11.740Z,84.42
2022-11-22T17:58:39.852Z,84.24
2022-11-22T18:01:09.977Z,83.99
2022-11-22T18:03:37.618Z,83.21
2022-11-22T18:06:07.876Z,82.12
2022-11-22T18:08:35.799Z,81.72
2022-11-22T18:11:04.446Z,81.14
2022-11-22T18:13:34.216Z,80.88
2022-11-22T18:16:03.928Z,81.64
2022-11-22T18:21:21.321Z,81.29
2022-11-22T18:23:48.630Z,80.29
2022-11-22T18:31:53.453Z,79.55
2022-11-22T18:34:22.454Z,79.56
2022-11-22T18:36:57.525Z,79.11
2022-11-22T18:39:29.001Z,79.87
2022-11-22T18:41:57.248Z,80.54
2022-11-22T18:44:24.639Z,80.46
2022-11-22T18:46:52.504Z,80.56
2022-11-22T18:49:19.763Z,81.19
2022-11-22T18:51:47.573Z,82.06
2022-11-22T18:54:16.541Z,81.53
2022-11-22T18:56:44.319Z,81.63
2022-11-22T18:59:12.918Z,81.25
2022-11-22T19:01:41.088Z,80.95
2022-11-22T19:04:09.699Z,80.66
2022-11-22T19:06:37.544Z,79.54
2022-11-22T19:09:05.020Z,79.90
2022-11-22T19:11:34.655Z,78.93
2022-11-22T19:14:02.012Z,78.71
2022-11-22T19:16:29.800Z,78.99
2022-11-22T19:18:59.031Z,78.01
2022-11-22T19:21:28.682Z,77.25
2022-11-22T19:23:57.327Z,78.06
2022-11-22T19:26:26.445Z,78.85
2022-11-22T19:28:56.706Z,78.40
2022-11-22T19:31:27.281Z,78.95
2022-11-22T19:33:55.282Z,78.44
2022-11-22T19:36:31.804Z,78.33
2022-11-22T19:39:00.806Z,79.86
2022-11-22T19:41:28.834Z,79.94
2022-11-22T19:43:58.123Z,80.78
2022-11-22T19:46:26.424Z,81.53
2022-11-22T19:48:55.470Z,81.20
2022-11-22T19:51:24.315Z,81.89
2022-11-22T19:53:53.131Z,82.55
2022-11-22T19:56:21.765Z,82.77
2022-11-22T19:58:51.543Z,82.08
2022-11-22T20:01:22.129Z,82.24
2022-11-22T20:03:52.514Z,83.02
2022-11-22T20:06:20.903Z,83.39
2022-11-22T20:08:48.335Z,83.53
2022-11-22T20:11:18.260Z,83.24
2022-11-22T20:13:47.223Z,82.95
2022-11-22T20:16:16.753Z,83.17
2022-11-22T20:18:46.134Z,83.41
2022-11-22T20:21:17.633Z,83.16
2022-11-22T20:23:48.149Z,82.22
2022-11-22T20:26:17.141Z,82.71
2022-11-22T20:28:45.980Z,83.06
2022-11-22T20:31:15.886Z,81.79
2022-11-22T20:33:46.661Z,81.36
2022-11-22T20:36:16.995Z,82.48
2022-11-22T20:38:45.748Z,83.35
2022-11-22T20:41:14.896Z,83.35
2022-11-22T20:43:42.887Z,83.83
2022-11-22T20:46:12.919Z,84.45
2022-11-22T20:48:41.683Z,83.76
2022-11-22T20:51:12.810Z,83.24
2022-11-22T20:53:41.217Z,82.98
2022-11-22T20:56:10.120Z,82.58
2022-11-22T20:58:38.494Z,82.70
2022-11-22T21:01:07.900Z,83.34
2022-11-22T21:03:36.251Z,82.97
2022-11-22T21:06:04.821Z,84.08
2022-11-22T21:08:34.243Z,83.17
2022-11-22T21:11:03.321Z,83.00
2022-11-22T21:13:31.574Z,83.24
2022-11-22T21:16:01.417Z,83.26
2022-11-22T21:18:28.939Z,82.91
2022-11-22T21:21:03.040Z,82.34
2022-11-22T21:23:30.666Z,82.44
2022-11-22T21:26:00.250Z,82.32
2022-11-22T21:28:27.896Z,82.66
2022-11-22T21:30:56.627Z,81.99
2022-11-22T21:33:24.304Z,82.23
2022-11-22T21:35:53.075Z,81.69
2022-11-22T21:38:20.856Z,83.16
2022-11-22T21:40:53.833Z,83.14
2022-11-22T21:43:27.420Z,83.58
2022-11-22T21:45:55.769Z,85.84
2022-11-22T21:48:24.058Z,84.33
2022-11-22T21:50:54.295Z,83.60
2022-11-22T21:53:23.719Z,84.10
2022-11-22T21:55:52.460Z,83.47
2022-11-22T21:58:21.220Z,82.56
2022-11-22T22:00:51.749Z,82.22
2022-11-22T22:03:19.343Z,81.62
2022-11-22T22:12:34.731Z,80.79
2022-11-22T22:15:02.537Z,80.52
2022-11-22T22:17:31.419Z,80.38
2022-11-22T22:19:59.109Z,80.23
2022-11-22T22:22:26.535Z,79.83
2022-11-22T22:24:54.153Z,79.11
2022-11-22T22:27:21.735Z,78.86
2022-11-22T22:29:49.486Z,78.68
2022-11-22T22:32:16.754Z,79.77
2022-11-22T22:34:46.126Z,79.99
2022-11-22T22:37:13.666Z,80.74
2022-11-22T22:39:41.754Z,81.24
2022-11-22T22:42:09.360Z,82.82
2022-11-22T22:44:37.011Z,82.67
2022-11-22T22:47:05.473Z,81.18
2022-11-22T22:49:33.996Z,79.67
2022-11-22T22:52:03.057Z,79.26
2022-11-22T22:54:30.796Z,79.69
2022-11-22T22:56:58.274Z,80.33
2022-11-22T22:59:26.284Z,80.41
2022-11-22T23:01:53.650Z,80.33
2022-11-22T23:04:22.862Z,84.22
2022-11-22T23:06:50.244Z,85.82
2022-11-22T23:09:19.696Z,85.59
2022-11-22T23:11:46.976Z,87.17
2022-11-22T23:14:16.489Z,85.89
2022-11-22T23:16:44.892Z,83.99
2022-11-22T23:19:12.730Z,81.81
2022-11-22T23:21:40.888Z,81.43
2022-11-22T23:24:08.862Z,81.49
2022-11-22T23:26:38.492Z,83.34
2022-11-22T23:29:06.233Z,84.26
2022-11-22T23:31:34.075Z,83.92
2022-11-22T23:34:01.608Z,82.78
2022-11-22T23:36:29.699Z,81.88
2022-11-22T23:38:57.058Z,82.35
2022-11-22T23:41:25.778Z,81.71
2022-11-22T23:43:56.037Z,81.05
2022-11-22T23:46:25.468Z,81.22
2022-11-22T23:48:54.480Z,81.50
2022-11-22T23:51:23.091Z,81.54
2022-11-22T23:53:54.653Z,81.83
2022-11-22T23:56:22.751Z,81.65
2022-11-22T23:58:50.461Z,81.24
